createdAt,value
2022-09-13T00:01:34.403Z,8.60
2022-09-13T00:04:01.898Z,8.70
2022-09-13T00:06:29.156Z,8.52
2022-09-13T00:08:56.509Z,8.27
2022-09-13T00:11:28.917Z,8.20
2022-09-13T00:13:57.965Z,8.65
2022-09-13T00:16:28.333Z,8.30
2022-09-13T00:18:56.279Z,8.15
2022-09-13T00:21:24.585Z,7.50
2022-09-13T00:23:54.194Z,7.05
2022-09-13T00:26:27.867Z,7.63
2022-09-13T00:28:57.921Z,7.03
2022-09-13T00:31:27.713Z,7.63
2022-09-13T00:33:56.045Z,7.30
2022-09-13T00:36:23.381Z,7.63
2022-09-13T00:38:50.539Z,7.40
2022-09-13T00:41:19.704Z,6.57
2022-09-13T00:43:53.179Z,6.13
2022-09-13T00:46:40.162Z,5.43
2022-09-13T00:49:19.549Z,5.47
2022-09-13T00:51:51.462Z,5.15
2022-09-13T00:54:25.444Z,6.45
2022-09-13T00:56:57.490Z,6.00
2022-09-13T00:59:39.621Z,5.95
2022-09-13T01:04:36.971Z,5.78
2022-09-13T01:07:08.958Z,5.10
2022-09-13T01:09:40.032Z,5.50
2022-09-13T01:12:08.457Z,5.30
2022-09-13T01:14:37.318Z,7.13
2022-09-13T01:17:04.978Z,6.68
2022-09-13T01:19:32.245Z,5.32
2022-09-13T01:22:08.602Z,6.47
2022-09-13T01:25:03.636Z,5.57
2022-09-13T01:28:01.303Z,5.28
2022-09-13T01:30:38.252Z,5.63
2022-09-13T01:33:39.147Z,5.85
2022-09-13T01:36:32.853Z,5.07
2022-09-13T01:39:27.823Z,4.75
2022-09-13T01:42:13.525Z,4.38
2022-09-13T01:44:43.708Z,3.70
2022-09-13T01:47:34.074Z,3.33
2022-09-13T01:50:07.537Z,3.35
2022-09-13T01:52:45.119Z,3.40
2022-09-13T01:55:27.406Z,3.25
2022-09-13T01:58:01.353Z,3.40
2022-09-13T02:00:32.113Z,3.03
2022-09-13T02:03:07.257Z,3.43
2022-09-13T02:05:52.122Z,2.92
2022-09-13T02:08:29.350Z,3.40
2022-09-13T02:11:10.810Z,3.50
2022-09-13T02:13:46.522Z,3.50
2022-09-13T02:16:21.726Z,3.90
2022-09-13T02:18:57.852Z,3.28
2022-09-13T02:21:38.528Z,2.90
2022-09-13T02:24:17.948Z,3.75
2022-09-13T02:26:47.544Z,3.08
2022-09-13T02:29:18.154Z,3.40
2022-09-13T02:31:55.713Z,3.40
2022-09-13T02:34:31.694Z,3.10
2022-09-13T02:37:01.768Z,3.38
2022-09-13T02:39:32.670Z,3.03
2022-09-13T02:42:17.682Z,2.95
2022-09-13T02:44:53.008Z,3.25
2022-09-13T02:47:38.314Z,3.58
2022-09-13T02:50:30.999Z,3.40
2022-09-13T02:53:29.214Z,3.65
2022-09-13T02:56:18.834Z,3.42
2022-09-13T02:59:02.766Z,3.20
2022-09-13T03:01:30.514Z,3.00
2022-09-13T03:03:57.778Z,3.50
2022-09-13T03:06:26.594Z,3.35
2022-09-13T03:08:57.416Z,3.53
2022-09-13T03:11:41.881Z,3.50
2022-09-13T03:14:42.424Z,6.60
2022-09-13T03:17:37.011Z,4.00
2022-09-13T03:20:12.057Z,3.30
2022-09-13T03:23:03.460Z,2.90
2022-09-13T03:25:49.130Z,2.33
2022-09-13T03:28:34.423Z,3.25
2022-09-13T03:31:30.920Z,2.80
2022-09-13T03:34:04.172Z,3.05
2022-09-13T03:36:49.684Z,2.83
2022-09-13T03:39:28.954Z,2.95
2022-09-13T03:42:01.104Z,3.40
2022-09-13T03:44:30.758Z,3.20
2022-09-13T03:47:01.363Z,3.22
2022-09-13T03:49:29.723Z,3.13
2022-09-13T03:51:58.193Z,3.38
2022-09-13T03:54:38.355Z,3.40
2022-09-13T03:57:14.589Z,2.83
2022-09-13T03:59:47.576Z,3.40
2022-09-13T04:02:16.673Z,2.75
2022-09-13T04:04:45.524Z,2.88
2022-09-13T04:07:15.956Z,3.72
2022-09-13T04:09:43.146Z,3.35
2022-09-13T04:12:11.019Z,3.45
2022-09-13T04:14:38.226Z,3.63
2022-09-13T04:17:05.880Z,3.40
2022-09-13T04:19:33.650Z,3.30
2022-09-13T04:22:00.860Z,3.53
2022-09-13T04:24:29.845Z,3.30
2022-09-13T04:26:57.980Z,3.80
2022-09-13T04:29:26.462Z,3.15
2022-09-13T04:31:55.647Z,3.53
2022-09-13T04:34:23.544Z,3.25
2022-09-13T04:36:52.590Z,2.97
2022-09-13T04:39:20.793Z,3.25
2022-09-13T04:41:49.227Z,3.40
2022-09-13T04:44:17.767Z,2.90
2022-09-13T04:46:48.258Z,2.58
2022-09-13T04:49:17.114Z,3.03
2022-09-13T04:51:44.989Z,3.28
2022-09-13T04:54:15.625Z,2.20
2022-09-13T04:56:44.995Z,2.67
2022-09-13T04:59:12.813Z,2.28
2022-09-13T05:01:40.482Z,2.67
2022-09-13T05:04:09.459Z,2.42
2022-09-13T05:06:36.790Z,2.05
2022-09-13T05:09:04.228Z,2.65
2022-09-13T05:11:32.009Z,2.28
2022-09-13T05:14:00.943Z,2.00
2022-09-13T05:16:30.935Z,2.38
2022-09-13T05:18:58.984Z,2.20
2022-09-13T05:21:27.944Z,2.13
2022-09-13T05:23:56.721Z,2.78
2022-09-13T05:26:26.172Z,2.08
2022-09-13T05:28:53.685Z,2.63
2022-09-13T05:31:26.612Z,2.70
2022-09-13T05:33:56.944Z,2.72
2022-09-13T05:36:24.595Z,2.53
2022-09-13T05:39:12.128Z,1.80
2022-09-13T05:41:41.341Z,2.10
2022-09-13T05:44:13.166Z,1.73
2022-09-13T05:46:42.751Z,1.90
2022-09-13T05:49:12.660Z,1.85
2022-09-13T05:51:40.040Z,1.75
2022-09-13T05:54:07.460Z,2.38
2022-09-13T05:56:34.695Z,1.33
2022-09-13T05:59:01.861Z,1.48
2022-09-13T06:01:29.726Z,1.50
2022-09-13T06:03:59.271Z,1.65
2022-09-13T06:06:26.813Z,1.20
2022-09-13T06:08:57.868Z,1.27
2022-09-13T06:11:26.699Z,1.70
2022-09-13T06:13:54.210Z,1.33
2022-09-13T06:16:22.942Z,1.52
2022-09-13T06:18:50.619Z,1.15
2022-09-13T06:21:21.213Z,1.27
2022-09-13T06:23:53.221Z,1.45
2022-09-13T06:26:22.389Z,1.52
2022-09-13T06:28:51.618Z,0.90
2022-09-13T06:31:20.975Z,1.48
2022-09-13T06:33:48.718Z,1.65
2022-09-13T06:36:18.372Z,1.20
2022-09-13T06:38:49.015Z,1.33
2022-09-13T06:41:21.984Z,1.13
2022-09-13T06:44:00.220Z,1.45
2022-09-13T06:46:30.171Z,1.52
2022-09-13T06:49:04.803Z,1.25
2022-09-13T06:51:34.034Z,1.02
2022-09-13T06:54:03.982Z,1.67
2022-09-13T06:56:34.119Z,1.60
2022-09-13T06:59:05.144Z,1.58
2022-09-13T07:01:41.344Z,1.75
2022-09-13T07:04:11.671Z,1.58
2022-09-13T07:06:44.305Z,1.35
2022-09-13T07:09:15.705Z,1.77
2022-09-13T07:11:43.744Z,1.48
2022-09-13T07:14:19.849Z,1.58
2022-09-13T07:16:47.466Z,1.70
2022-09-13T07:19:17.457Z,2.67
2022-09-13T07:21:44.868Z,2.97
2022-09-13T07:24:12.894Z,2.83
2022-09-13T07:26:40.105Z,2.10
2022-09-13T07:29:10.539Z,2.40
2022-09-13T07:31:45.730Z,2.27
2022-09-13T07:34:24.333Z,2.83
2022-09-13T07:36:52.674Z,2.30
2022-09-13T07:39:22.610Z,2.85
2022-09-13T07:41:51.963Z,1.33
2022-09-13T07:44:20.110Z,1.92
2022-09-13T07:46:47.368Z,2.67
2022-09-13T07:49:17.962Z,1.98
2022-09-13T07:51:45.734Z,2.13
2022-09-13T07:54:16.020Z,2.25
2022-09-13T07:56:43.998Z,2.17
2022-09-13T07:59:16.085Z,2.40
2022-09-13T08:01:49.398Z,2.05
2022-09-13T08:04:19.987Z,2.58
2022-09-13T08:06:47.863Z,2.42
2022-09-13T08:09:16.238Z,2.67
2022-09-13T08:11:46.276Z,2.22
2022-09-13T08:14:16.289Z,2.30
2022-09-13T08:16:43.722Z,2.60
2022-09-13T08:19:14.800Z,3.00
2022-09-13T08:21:42.836Z,1.90
2022-09-13T08:24:16.272Z,2.88
2022-09-13T08:26:44.555Z,2.20
2022-09-13T08:29:12.798Z,2.50
2022-09-13T08:31:40.149Z,3.10
2022-09-13T08:34:11.961Z,2.97
2022-09-13T08:36:41.114Z,2.97
2022-09-13T08:39:10.152Z,3.67
2022-09-13T08:41:53.026Z,3.58
2022-09-13T08:44:26.602Z,3.22
2022-09-13T08:47:34.041Z,3.63
2022-09-13T08:50:13.164Z,4.20
2022-09-13T08:53:07.023Z,4.18
2022-09-13T08:55:56.598Z,4.15
2022-09-13T08:58:35.792Z,3.92
2022-09-13T09:01:14.120Z,5.18
2022-09-13T09:03:47.936Z,4.88
2022-09-13T09:06:17.213Z,4.50
2022-09-13T09:08:51.295Z,5.57
2022-09-13T09:11:36.923Z,6.03
2022-09-13T09:14:49.180Z,5.30
2022-09-13T09:17:29.122Z,5.38
2022-09-13T09:20:07.694Z,6.38
2022-09-13T09:22:36.326Z,6.03
2022-09-13T09:25:04.965Z,5.65
2022-09-13T09:27:33.305Z,5.72
2022-09-13T09:30:01.748Z,6.35
2022-09-13T09:32:47.633Z,6.28
2022-09-13T09:35:28.214Z,5.30
2022-09-13T09:38:07.208Z,5.65
2022-09-13T09:40:38.341Z,6.13
2022-09-13T09:43:20.122Z,6.78
2022-09-13T09:45:48.678Z,6.10
2022-09-13T09:48:22.074Z,6.43
2022-09-13T09:50:53.208Z,6.80
2022-09-13T09:53:30.673Z,8.02
2022-09-13T09:56:12.802Z,7.10
2022-09-13T09:58:45.330Z,6.95
2022-09-13T10:01:27.800Z,6.07
2022-09-13T10:04:18.873Z,6.38
2022-09-13T10:06:47.150Z,5.93
2022-09-13T10:09:14.386Z,6.20
2022-09-13T10:11:52.148Z,5.97
2022-09-13T10:14:30.900Z,6.50
2022-09-13T10:17:24.048Z,6.97
2022-09-13T10:20:02.115Z,6.90
2022-09-13T10:22:32.596Z,6.53
2022-09-13T10:25:22.414Z,6.78
2022-09-13T10:27:55.724Z,6.43
2022-09-13T10:30:38.294Z,7.05
2022-09-13T10:33:08.296Z,6.75
2022-09-13T10:35:35.754Z,7.60
2022-09-13T10:38:03.006Z,6.70
2022-09-13T10:40:38.665Z,7.70
2022-09-13T10:43:19.563Z,7.75
2022-09-13T10:45:51.684Z,7.93
2022-09-13T10:48:20.453Z,7.80
2022-09-13T10:51:08.541Z,7.85
2022-09-13T10:53:42.022Z,8.02
2022-09-13T10:56:25.559Z,7.57
2022-09-13T10:59:28.138Z,8.63
2022-09-13T11:02:01.479Z,8.18
2022-09-13T11:04:44.218Z,7.43
2022-09-13T11:07:32.950Z,7.97
2022-09-13T11:10:21.061Z,6.68
2022-09-13T11:13:07.518Z,7.00
2022-09-13T11:16:03.771Z,7.53
2022-09-13T11:18:39.131Z,6.68
2022-09-13T11:21:20.797Z,6.40
2022-09-13T11:24:06.323Z,6.00
2022-09-13T11:27:05.950Z,6.75
2022-09-13T11:29:53.107Z,6.72
2022-09-13T11:32:49.381Z,6.07
2022-09-13T11:35:37.460Z,6.10
2022-09-13T11:38:16.987Z,5.53
2022-09-13T11:40:58.776Z,5.20
2022-09-13T11:43:44.242Z,5.80
2022-09-13T11:46:26.334Z,5.20
2022-09-13T11:49:04.605Z,5.70
2022-09-13T11:51:56.212Z,5.40
2022-09-13T11:57:19.780Z,4.75
2022-09-13T11:59:57.531Z,5.60
2022-09-13T12:02:29.902Z,5.43
2022-09-13T12:05:22.616Z,5.32
2022-09-13T12:07:59.923Z,5.82
2022-09-13T12:10:39.465Z,5.15
2022-09-13T12:13:14.407Z,5.90
2022-09-13T12:15:44.837Z,5.45
2022-09-13T12:18:21.416Z,6.13
2022-09-13T12:20:53.186Z,5.53
2022-09-13T12:23:44.125Z,5.10
2022-09-13T12:26:26.826Z,5.60
2022-09-13T12:29:07.490Z,4.97
2022-09-13T12:31:35.043Z,5.05
2022-09-13T12:34:08.149Z,5.68
2022-09-13T12:36:53.786Z,5.07
2022-09-13T12:39:39.832Z,5.32
2022-09-13T12:42:38.347Z,5.70
2022-09-13T12:45:20.906Z,5.10
2022-09-13T12:48:02.517Z,5.60
2022-09-13T12:50:43.557Z,5.47
2022-09-13T12:53:23.594Z,5.82
2022-09-13T12:56:00.127Z,6.40
2022-09-13T12:58:38.005Z,6.18
2022-09-13T13:01:23.019Z,5.88
2022-09-13T13:04:13.183Z,6.65
2022-09-13T13:06:52.573Z,6.55
2022-09-13T13:09:26.612Z,6.40
2022-09-13T13:11:58.539Z,6.88
2022-09-13T13:14:44.611Z,6.32
2022-09-13T13:17:46.158Z,5.80
2022-09-13T13:20:38.345Z,5.90
2022-09-13T13:23:18.392Z,5.72
2022-09-13T13:26:11.837Z,5.32
2022-09-13T13:28:45.663Z,5.25
2022-09-13T13:31:25.162Z,5.32
2022-09-13T13:34:10.478Z,4.97
2022-09-13T13:36:41.066Z,5.50
2022-09-13T13:39:24.373Z,5.10
2022-09-13T13:41:58.145Z,5.15
2022-09-13T13:44:25.593Z,5.30
2022-09-13T13:47:16.202Z,4.93
2022-09-13T13:49:46.331Z,5.27
2022-09-13T13:52:17.836Z,5.40
2022-09-13T13:54:45.457Z,5.50
2022-09-13T13:57:31.175Z,5.38
2022-09-13T14:00:18.200Z,5.32
2022-09-13T14:03:03.451Z,5.70
2022-09-13T14:05:37.383Z,5.55
2022-09-13T14:08:23.765Z,5.75
2022-09-13T14:10:59.255Z,5.97
2022-09-13T14:14:03.514Z,6.07
2022-09-13T14:16:49.491Z,5.88
2022-09-13T14:19:43.686Z,6.05
2022-09-13T14:22:16.719Z,6.38
2022-09-13T14:24:55.319Z,5.90
2022-09-13T14:27:33.487Z,5.45
2022-09-13T14:30:17.494Z,6.85
2022-09-13T14:32:51.193Z,6.47
2022-09-13T14:35:39.559Z,5.03
2022-09-13T14:38:33.522Z,5.97
2022-09-13T14:41:16.700Z,5.22
2022-09-13T14:43:45.722Z,5.22
2022-09-13T14:46:26.100Z,6.07
2022-09-13T14:49:08.713Z,5.60
2022-09-13T14:51:42.227Z,5.65
2022-09-13T14:54:28.170Z,6.22
2022-09-13T14:57:00.203Z,6.00
2022-09-13T14:59:41.840Z,6.28
2022-09-13T15:02:27.718Z,6.32
2022-09-13T15:04:58.515Z,6.65
2022-09-13T15:07:34.644Z,6.32
2022-09-13T15:10:17.283Z,6.25
2022-09-13T15:13:05.674Z,6.10
2022-09-13T15:15:43.591Z,6.53
2022-09-13T15:18:16.813Z,7.88
2022-09-13T15:20:51.868Z,6.63
2022-09-13T15:23:25.427Z,6.75
2022-09-13T15:26:17.130Z,6.95
2022-09-13T15:28:44.282Z,7.05
2022-09-13T15:31:24.384Z,7.65
2022-09-13T15:34:13.905Z,7.20
2022-09-13T15:36:41.352Z,7.00
2022-09-13T15:39:08.427Z,7.78
2022-09-13T15:41:38.135Z,7.28
2022-09-13T15:44:09.868Z,7.47
2022-09-13T15:46:49.586Z,8.07
2022-09-13T15:49:19.470Z,8.18
2022-09-13T15:51:47.514Z,8.80
2022-09-13T15:54:17.649Z,9.05
2022-09-13T15:56:47.431Z,7.93
2022-09-13T15:59:16.887Z,8.52
2022-09-13T16:01:45.113Z,8.55
2022-09-13T16:04:12.558Z,8.65
2022-09-13T16:06:40.417Z,8.65
2022-09-13T16:09:22.604Z,9.18
2022-09-13T16:11:51.719Z,8.15
2022-09-13T16:14:19.405Z,8.73
2022-09-13T16:16:49.152Z,8.50
2022-09-13T16:19:20.241Z,8.98
2022-09-13T16:21:48.429Z,8.20
2022-09-13T16:24:16.550Z,8.65
2022-09-13T16:26:44.019Z,8.65
2022-09-13T16:29:12.714Z,9.23
2022-09-13T16:31:40.464Z,9.13
2022-09-13T16:34:08.268Z,9.52
2022-09-13T16:36:35.795Z,9.20
2022-09-13T16:39:03.139Z,9.75
2022-09-13T16:41:30.682Z,9.55
2022-09-13T16:43:57.842Z,9.02
2022-09-13T16:46:25.505Z,9.13
2022-09-13T16:48:54.688Z,9.00
2022-09-13T16:51:23.580Z,8.32
2022-09-13T16:53:52.976Z,8.02
2022-09-13T16:56:23.551Z,8.10
2022-09-13T16:58:52.309Z,9.60
2022-09-13T17:01:23.637Z,8.90
2022-09-13T17:03:54.730Z,8.77
2022-09-13T17:06:24.107Z,8.50
2022-09-13T17:09:03.515Z,8.30
2022-09-13T17:11:34.762Z,8.13
2022-09-13T17:14:04.790Z,8.15
2022-09-13T17:16:41.391Z,7.85
2022-09-13T17:19:14.236Z,9.35
2022-09-13T17:21:43.184Z,8.13
2022-09-13T17:24:13.578Z,8.23
2022-09-13T17:26:42.455Z,6.53
2022-09-13T17:29:12.413Z,8.50
2022-09-13T17:31:40.127Z,7.90
2022-09-13T17:34:08.286Z,7.45
2022-09-13T17:36:36.332Z,8.30
2022-09-13T17:39:04.206Z,7.88
2022-09-13T17:41:31.615Z,7.70
2022-09-13T17:43:59.145Z,7.70
2022-09-13T17:46:29.564Z,7.90
2022-09-13T17:48:59.242Z,7.63
2022-09-13T17:51:31.514Z,8.00
2022-09-13T17:54:05.351Z,9.30
2022-09-13T17:56:38.917Z,8.15
2022-09-13T17:59:14.485Z,8.05
2022-09-13T18:01:44.772Z,8.60
2022-09-13T18:04:13.364Z,9.00
2022-09-13T18:06:42.713Z,9.88
2022-09-13T18:09:11.997Z,9.07
2022-09-13T18:11:41.236Z,9.90
2022-09-13T18:14:16.030Z,9.77
2022-09-13T18:16:44.476Z,9.55
2022-09-13T18:19:12.251Z,10.65
2022-09-13T18:21:39.623Z,10.32
2022-09-13T18:24:07.435Z,9.65
2022-09-13T18:26:35.792Z,9.32
2022-09-13T18:29:07.328Z,9.32
2022-09-13T18:31:36.075Z,9.77
2022-09-13T18:34:06.700Z,9.27
2022-09-13T18:36:35.562Z,9.20
2022-09-13T18:39:05.052Z,9.00
2022-09-13T18:41:36.549Z,9.45
2022-09-13T18:44:05.567Z,11.48
2022-09-13T18:46:35.414Z,10.95
2022-09-13T18:49:03.445Z,10.90
2022-09-13T18:51:45.127Z,11.63
2022-09-13T18:54:17.359Z,11.40
2022-09-13T18:56:48.566Z,10.48
2022-09-13T18:59:16.825Z,10.23
2022-09-13T19:01:45.596Z,9.93
2022-09-13T19:04:16.891Z,8.85
2022-09-13T19:06:46.855Z,7.63
2022-09-13T19:09:15.408Z,7.80
2022-09-13T19:11:47.447Z,7.97
2022-09-13T19:14:24.590Z,7.75
2022-09-13T19:16:54.863Z,8.23
2022-09-13T19:19:23.656Z,7.25
2022-09-13T19:21:51.951Z,6.97
2022-09-13T19:24:20.645Z,7.10
2022-09-13T19:26:51.561Z,7.28
2022-09-13T19:29:22.292Z,5.78
2022-09-13T19:31:53.202Z,6.65
2022-09-13T19:34:24.127Z,6.15
2022-09-13T19:36:58.292Z,5.72
2022-09-13T19:39:30.625Z,5.20
2022-09-13T19:42:02.127Z,4.88
2022-09-13T19:44:29.717Z,4.70
2022-09-13T19:47:40.088Z,4.63
2022-09-13T19:49:44.444Z,4.70
2022-09-13T19:52:12.960Z,5.25
2022-09-13T19:54:42.390Z,4.72
2022-09-13T19:57:11.329Z,5.00
2022-09-13T19:59:39.278Z,4.57
2022-09-13T20:02:08.078Z,4.97
2022-09-13T20:04:36.252Z,4.50
2022-09-13T20:07:04.662Z,4.13
2022-09-13T20:09:32.475Z,4.07
2022-09-13T20:12:00.710Z,4.03
2022-09-13T20:14:29.748Z,3.85
2022-09-13T20:16:58.677Z,3.85
2022-09-13T20:19:46.196Z,4.03
2022-09-13T20:22:15.052Z,4.10
2022-09-13T20:24:43.481Z,4.55
2022-09-13T20:27:11.344Z,3.97
2022-09-13T20:29:39.670Z,4.43
2022-09-13T20:32:08.840Z,4.55
2022-09-13T20:34:37.994Z,4.78
2022-09-13T20:37:06.338Z,4.60
2022-09-13T20:39:35.322Z,4.53
2022-09-13T20:42:03.167Z,3.83
2022-09-13T20:44:30.804Z,4.55
2022-09-13T20:46:59.588Z,4.93
2022-09-13T20:49:28.627Z,4.65
2022-09-13T20:51:55.980Z,4.03
2022-09-13T20:54:23.596Z,4.03
2022-09-13T20:56:50.966Z,3.85
2022-09-13T20:59:18.382Z,4.35
2022-09-13T21:01:45.840Z,3.75
2022-09-13T21:04:13.051Z,3.42
2022-09-13T21:07:02.113Z,3.70
2022-09-13T21:09:29.883Z,2.80
2022-09-13T21:11:57.326Z,3.97
2022-09-13T21:14:24.572Z,2.70
2022-09-13T21:16:52.039Z,2.72
2022-09-13T21:19:19.593Z,2.92
2022-09-13T21:21:47.469Z,3.00
2022-09-13T21:24:14.868Z,3.40
2022-09-13T21:26:42.541Z,3.15
2022-09-13T21:29:11.684Z,2.90
2022-09-13T21:31:40.590Z,2.40
2022-09-13T21:34:16.008Z,2.55
2022-09-13T21:36:44.520Z,2.85
2022-09-13T21:39:12.773Z,1.95
2022-09-13T21:41:40.200Z,2.45
2022-09-13T21:44:07.969Z,2.17
2022-09-13T21:46:36.842Z,2.92
2022-09-13T21:49:12.408Z,2.47
2022-09-13T21:51:49.938Z,2.83
2022-09-13T21:54:19.202Z,2.15
2022-09-13T21:56:54.173Z,2.20
2022-09-13T21:59:22.958Z,1.73
2022-09-13T22:01:52.008Z,2.10
2022-09-13T22:04:22.971Z,1.92
2022-09-13T22:06:52.251Z,1.80
2022-09-13T22:09:21.593Z,2.17
2022-09-13T22:11:49.715Z,1.83
2022-09-13T22:14:21.703Z,1.60
2022-09-13T22:16:50.476Z,2.50
2022-09-13T22:19:22.229Z,2.28
2022-09-13T22:24:22.380Z,1.48
2022-09-13T22:26:51.382Z,1.65
2022-09-13T22:29:19.896Z,1.70
2022-09-13T22:31:50.218Z,2.13
2022-09-13T22:34:20.520Z,1.63
2022-09-13T22:36:47.988Z,2.03
2022-09-13T22:39:16.899Z,1.65
2022-09-13T22:41:45.020Z,1.77
2022-09-13T22:44:12.670Z,2.13
2022-09-13T22:46:44.635Z,1.65
2022-09-13T22:49:17.307Z,1.90
2022-09-13T22:51:45.755Z,1.85
2022-09-13T22:54:14.820Z,2.22
2022-09-13T22:56:42.693Z,3.35
2022-09-13T22:59:15.620Z,2.53
2022-09-13T23:01:44.191Z,2.33
2022-09-13T23:04:12.599Z,1.95
2022-09-13T23:06:40.414Z,2.13
2022-09-13T23:09:08.905Z,2.45
2022-09-13T23:11:38.604Z,2.10
2022-09-13T23:14:10.040Z,1.80
2022-09-13T23:16:41.458Z,2.20
2022-09-13T23:19:11.342Z,2.05
2022-09-13T23:21:39.372Z,2.75
2022-09-13T23:24:10.182Z,1.70
2022-09-13T23:26:37.399Z,1.80
2022-09-13T23:29:06.003Z,1.75
2022-09-13T23:31:35.954Z,1.95
2022-09-13T23:34:05.497Z,1.88
2022-09-13T23:36:36.789Z,1.67
2022-09-13T23:39:06.615Z,1.33
2022-09-13T23:41:34.888Z,1.90
2022-09-13T23:44:03.207Z,1.60
2022-09-13T23:46:31.070Z,1.48
2022-09-13T23:48:58.530Z,2.10
2022-09-13T23:51:27.212Z,1.83
2022-09-13T23:54:01.006Z,1.45
2022-09-13T23:56:30.178Z,1.77
2022-09-13T23:58:59.227Z,1.92
